< < Back
Terminal Aerodrome Forecast


Current Version              Previous Versions:   1  2  3  4  5  6  7  8  9  

Terminal Aerodrome Forecast

103
FTUS44 KMRX 311122
TAFTYS
TAF
KTYS 311122Z 3112/0112 03003KT 5SM BR SCT003 BKN070
     FM311400 32004KT P6SM BKN060
     FM311800 27007KT P6SM VCSH OVC050
     FM312100 28010KT 6SM -RA BR OVC025
     FM010000 30015G25KT 5SM -SNRA BR OVC015
     FM010900 31016KT 2SM -SN BR OVC015=

Latest METAR

170
SAUS80 KWBC 312000
MTRTYS
METAR KTYS 311953Z 26008KT 10SM -RA OVC035 10/05 A2990 RMK AO2 RAB31
SLP123 P0000 T01000050


USA.gov is the U.S. government's official web portal to all federal, state and local government web resources and services.